Knoxville, TN (37998)

2:03 PM EDT on March 31, 2015 (GMT -0400)
Kimberlin Heights | | Change Station
CLOSE
Current Station
Personal Weather Station
Location: Knoxville, TN
Elevation: 928 ft
Nearby Weather Stations

Elev 928 ft 35.95 °N, 83.88 °W | Updated 2 minutes ago

Clear
Clear
73.9 °F
Feels Like 77 °F
N
4.7
Wind Variable Wind from West

Today
High -- | Low -- °F
--% Chance of Precip.
Yesterday
High -- | Low -- °F
Precip. -- in
7:23 AM 7:55 PM
Waxing Gibbous, 88% visible
Pressure 29.93 in
Visibility 10.0 miles
Clouds Few 3800 ft
Few 18000 ft
Few 25000 ft
Heat Index 77 °F
Dew Point 47 °F
Humidity 39%
Rainfall 0.00 in
Snow Depth Not available.
UV 9 out of 12
Pollen 10.30 out of 12
Air Quality Not available.
Flu Activity Not available.
METAR KTYS 311753Z 23014G25KT 10SM FEW038 FEW180 FEW250 22/08 A2994 RMK AO2 SLP133 T02220078 10222 20039 58027

More Conditions Fewer Conditions

Pressure 29.93 in
Visibility 10.0 miles
Clouds Few 3800 ft
Few 18000 ft
Few 25000 ft
Heat Index 77 °F
Dew Point 47 °F
Humidity 39%
Rainfall 0.00 in
Snow Depth Not available.
UV 9 out of 12
Pollen 10.30 out of 12
Air Quality Not available.
Flu Activity Not available.
METAR KTYS 311753Z 23014G25KT 10SM FEW038 FEW180 FEW250 22/08 A2994 RMK AO2 SLP133 T02220078 10222 20039 58027

More Conditions Fewer Conditions

10-Day Weather Forecast

Almanac

Astronomy

Mar. 31, 2015 Rise Set
Actual Time
Civil Twilight
Nautical Twilight
Astronomical Twilight
Moon
Length of Visible Light
Length of Day
Tomorrow will be .
, % of the Moon is Illuminated

Today's Extremes

State Highs State Lows

Community

WunderPhotos

Upload Photos

1,809,786 photos uploaded!

WunderBlogs® & News

Nearby

Air Quality

  Air Quality AQ Index Pollutant
Not available.

Snow Depth

Station Depth Elevation

Earthquake Activity

City Distance Mag. Time & Date
Minimum magnitude displayed is 2.5.

Coastal Water Temperatures

Place Temperature

Stations

Nearby Weather Stations

Station Location Temp. Windchill Dew Point Humidity Wind Precip. Elev Updated Type